sensor_id;sensor_type;location;lat;lon;timestamp;P1;durP1;ratioP1;P2;durP2;ratioP2
59587;SDS011;45412;54.472;18.464;2023-06-24T00:02:04;11.70;;;6.00;;
59587;SDS011;45412;54.472;18.464;2023-06-24T00:04:52;14.50;;;6.60;;
59587;SDS011;45412;54.472;18.464;2023-06-24T00:07:38;12.70;;;6.40;;
59587;SDS011;45412;54.472;18.464;2023-06-24T00:10:30;10.90;;;6.00;;
59587;SDS011;45412;54.472;18.464;2023-06-24T00:13:17;13.40;;;6.20;;
59587;SDS011;45412;54.472;18.464;2023-06-24T00:16:04;12.50;;;6.30;;
59587;SDS011;45412;54.472;18.464;2023-06-24T00:18:55;11.30;;;6.10;;
59587;SDS011;45412;54.472;18.464;2023-06-24T00:21:50;11.80;;;5.90;;
59587;SDS011;45412;54.472;18.464;2023-06-24T00:24:37;11.40;;;6.00;;
59587;SDS011;45412;54.472;18.464;2023-06-24T00:27:25;11.00;;;6.10;;
59587;SDS011;45412;54.472;18.464;2023-06-24T00:30:12;10.90;;;6.10;;
59587;SDS011;45412;54.472;18.464;2023-06-24T00:32:58;11.80;;;6.60;;
59587;SDS011;45412;54.472;18.464;2023-06-24T00:35:45;13.00;;;6.00;;
59587;SDS011;45412;54.472;18.464;2023-06-24T00:38:34;11.10;;;5.70;;
59587;SDS011;45412;54.472;18.464;2023-06-24T00:41:20;13.00;;;6.30;;
59587;SDS011;45412;54.472;18.464;2023-06-24T00:44:06;12.50;;;6.40;;
59587;SDS011;45412;54.472;18.464;2023-06-24T00:46:53;12.00;;;6.00;;
59587;SDS011;45412;54.472;18.464;2023-06-24T00:49:40;13.90;;;6.10;;
59587;SDS011;45412;54.472;18.464;2023-06-24T00:52:56;11.70;;;6.30;;
59587;SDS011;45412;54.472;18.464;2023-06-24T00:55:43;12.40;;;5.90;;
59587;SDS011;45412;54.472;18.464;2023-06-24T00:58:32;10.70;;;5.00;;
59587;SDS011;45412;54.472;18.464;2023-06-24T01:01:21;11.60;;;5.80;;
59587;SDS011;45412;54.472;18.464;2023-06-24T01:04:07;12.70;;;5.10;;
59587;SDS011;45412;54.472;18.464;2023-06-24T01:06:54;11.60;;;5.70;;
59587;SDS011;45412;54.472;18.464;2023-06-24T01:09:41;10.60;;;5.30;;
59587;SDS011;45412;54.472;18.464;2023-06-24T01:12:28;10.00;;;4.70;;
59587;SDS011;45412;54.472;18.464;2023-06-24T01:15:15;13.20;;;6.40;;
59587;SDS011;45412;54.472;18.464;2023-06-24T01:18:24;9.20;;;4.80;;
59587;SDS011;45412;54.472;18.464;2023-06-24T01:21:27;11.60;;;4.50;;
59587;SDS011;45412;54.472;18.464;2023-06-24T01:28:09;10.90;;;5.50;;
59587;SDS011;45412;54.472;18.464;2023-06-24T01:34:53;11.90;;;5.60;;
59587;SDS011;45412;54.472;18.464;2023-06-24T01:37:53;12.90;;;5.10;;
59587;SDS011;45412;54.472;18.464;2023-06-24T01:40:45;9.00;;;4.60;;
59587;SDS011;45412;54.472;18.464;2023-06-24T01:43:43;8.90;;;4.40;;
59587;SDS011;45412;54.472;18.464;2023-06-24T01:46:30;11.20;;;5.40;;
59587;SDS011;45412;54.472;18.464;2023-06-24T01:49:17;11.80;;;5.20;;
59587;SDS011;45412;54.472;18.464;2023-06-24T01:52:09;10.70;;;4.70;;
59587;SDS011;45412;54.472;18.464;2023-06-24T01:54:58;10.30;;;5.00;;
59587;SDS011;45412;54.472;18.464;2023-06-24T01:57:45;11.90;;;5.20;;
59587;SDS011;45412;54.472;18.464;2023-06-24T02:00:34;10.20;;;4.60;;
59587;SDS011;45412;54.472;18.464;2023-06-24T02:03:21;10.10;;;5.00;;
59587;SDS011;45412;54.472;18.464;2023-06-24T02:06:09;10.30;;;4.80;;
59587;SDS011;45412;54.472;18.464;2023-06-24T02:08:58;9.30;;;4.40;;
59587;SDS011;45412;54.472;18.464;2023-06-24T02:11:47;8.90;;;4.80;;
59587;SDS011;45412;54.472;18.464;2023-06-24T02:14:35;11.40;;;5.00;;
59587;SDS011;45412;54.472;18.464;2023-06-24T02:17:24;11.20;;;4.50;;
59587;SDS011;45412;54.472;18.464;2023-06-24T02:20:11;10.10;;;4.50;;
59587;SDS011;45412;54.472;18.464;2023-06-24T02:23:01;11.40;;;4.70;;
59587;SDS011;45412;54.472;18.464;2023-06-24T02:25:49;9.10;;;4.40;;
59587;SDS011;45412;54.472;18.464;2023-06-24T02:28:36;8.80;;;4.30;;
59587;SDS011;45412;54.472;18.464;2023-06-24T02:31:24;9.50;;;3.90;;
59587;SDS011;45412;54.472;18.464;2023-06-24T02:34:11;9.80;;;4.80;;
59587;SDS011;45412;54.472;18.464;2023-06-24T02:36:57;8.60;;;3.80;;
59587;SDS011;45412;54.472;18.464;2023-06-24T02:39:44;11.40;;;4.70;;
59587;SDS011;45412;54.472;18.464;2023-06-24T02:42:31;10.20;;;4.60;;
59587;SDS011;45412;54.472;18.464;2023-06-24T02:45:18;10.10;;;4.10;;
59587;SDS011;45412;54.472;18.464;2023-06-24T02:48:06;10.30;;;4.60;;
59587;SDS011;45412;54.472;18.464;2023-06-24T02:50:55;12.50;;;4.80;;
59587;SDS011;45412;54.472;18.464;2023-06-24T02:53:41;9.90;;;4.40;;
59587;SDS011;45412;54.472;18.464;2023-06-24T02:56:30;8.90;;;4.00;;
59587;SDS011;45412;54.472;18.464;2023-06-24T02:59:16;9.00;;;4.10;;
59587;SDS011;45412;54.472;18.464;2023-06-24T03:02:03;9.40;;;4.10;;
59587;SDS011;45412;54.472;18.464;2023-06-24T03:04:51;9.10;;;4.40;;
59587;SDS011;45412;54.472;18.464;2023-06-24T03:07:38;9.80;;;4.70;;
59587;SDS011;45412;54.472;18.464;2023-06-24T03:10:25;11.80;;;4.20;;
59587;SDS011;45412;54.472;18.464;2023-06-24T03:13:11;9.70;;;4.20;;
59587;SDS011;45412;54.472;18.464;2023-06-24T03:16:04;10.30;;;4.00;;
59587;SDS011;45412;54.472;18.464;2023-06-24T03:18:56;9.00;;;4.10;;
59587;SDS011;45412;54.472;18.464;2023-06-24T03:21:43;8.60;;;3.80;;
59587;SDS011;45412;54.472;18.464;2023-06-24T03:24:32;9.60;;;4.40;;
59587;SDS011;45412;54.472;18.464;2023-06-24T03:27:18;9.10;;;4.30;;
59587;SDS011;45412;54.472;18.464;2023-06-24T03:30:06;9.60;;;4.00;;
59587;SDS011;45412;54.472;18.464;2023-06-24T03:32:54;11.00;;;4.30;;
59587;SDS011;45412;54.472;18.464;2023-06-24T03:35:40;9.30;;;4.20;;
59587;SDS011;45412;54.472;18.464;2023-06-24T03:38:28;9.80;;;4.10;;
59587;SDS011;45412;54.472;18.464;2023-06-24T03:41:15;9.50;;;3.90;;
59587;SDS011;45412;54.472;18.464;2023-06-24T03:44:03;9.30;;;4.00;;
59587;SDS011;45412;54.472;18.464;2023-06-24T03:46:50;8.80;;;4.10;;
59587;SDS011;45412;54.472;18.464;2023-06-24T03:49:37;9.10;;;3.90;;
59587;SDS011;45412;54.472;18.464;2023-06-24T03:52:24;11.60;;;4.30;;
59587;SDS011;45412;54.472;18.464;2023-06-24T03:55:11;9.30;;;4.00;;
59587;SDS011;45412;54.472;18.464;2023-06-24T03:57:58;11.40;;;4.00;;
59587;SDS011;45412;54.472;18.464;2023-06-24T04:00:45;10.20;;;4.20;;
59587;SDS011;45412;54.472;18.464;2023-06-24T04:03:32;10.80;;;4.30;;
59587;SDS011;45412;54.472;18.464;2023-06-24T04:06:18;10.10;;;4.10;;
59587;SDS011;45412;54.472;18.464;2023-06-24T04:09:05;9.90;;;3.90;;
59587;SDS011;45412;54.472;18.464;2023-06-24T04:11:52;8.40;;;3.60;;
59587;SDS011;45412;54.472;18.464;2023-06-24T04:14:39;9.00;;;4.50;;
59587;SDS011;45412;54.472;18.464;2023-06-24T04:17:25;8.90;;;3.60;;
59587;SDS011;45412;54.472;18.464;2023-06-24T04:20:12;10.90;;;4.10;;
59587;SDS011;45412;54.472;18.464;2023-06-24T04:22:58;11.90;;;4.30;;
59587;SDS011;45412;54.472;18.464;2023-06-24T04:25:46;9.10;;;4.10;;
59587;SDS011;45412;54.472;18.464;2023-06-24T04:28:33;8.80;;;4.10;;
59587;SDS011;45412;54.472;18.464;2023-06-24T04:31:19;10.30;;;4.30;;
59587;SDS011;45412;54.472;18.464;2023-06-24T04:34:06;9.80;;;4.60;;
59587;SDS011;45412;54.472;18.464;2023-06-24T04:36:52;8.80;;;4.10;;
59587;SDS011;45412;54.472;18.464;2023-06-24T04:39:38;9.40;;;4.10;;
59587;SDS011;45412;54.472;18.464;2023-06-24T04:42:25;9.10;;;4.00;;
59587;SDS011;45412;54.472;18.464;2023-06-24T04:45:12;10.00;;;4.10;;
59587;SDS011;45412;54.472;18.464;2023-06-24T04:47:59;9.30;;;3.90;;
59587;SDS011;45412;54.472;18.464;2023-06-24T04:50:45;8.30;;;3.40;;
59587;SDS011;45412;54.472;18.464;2023-06-24T04:53:32;8.50;;;4.00;;
59587;SDS011;45412;54.472;18.464;2023-06-24T04:56:18;8.90;;;4.00;;
59587;SDS011;45412;54.472;18.464;2023-06-24T04:59:04;9.50;;;4.50;;
59587;SDS011;45412;54.472;18.464;2023-06-24T05:01:51;10.90;;;4.10;;
59587;SDS011;45412;54.472;18.464;2023-06-24T05:04:37;11.00;;;4.30;;
59587;SDS011;45412;54.472;18.464;2023-06-24T05:07:23;8.60;;;3.90;;
59587;SDS011;45412;54.472;18.464;2023-06-24T05:10:10;9.80;;;4.20;;
59587;SDS011;45412;54.472;18.464;2023-06-24T05:12:56;10.80;;;4.30;;
59587;SDS011;45412;54.472;18.464;2023-06-24T05:15:43;9.30;;;3.90;;
59587;SDS011;45412;54.472;18.464;2023-06-24T05:18:29;8.80;;;4.10;;
59587;SDS011;45412;54.472;18.464;2023-06-24T05:21:16;9.00;;;3.70;;
59587;SDS011;45412;54.472;18.464;2023-06-24T05:24:03;9.60;;;4.10;;
59587;SDS011;45412;54.472;18.464;2023-06-24T05:26:50;12.10;;;4.40;;
59587;SDS011;45412;54.472;18.464;2023-06-24T05:29:37;9.20;;;4.70;;
59587;SDS011;45412;54.472;18.464;2023-06-24T05:32:23;10.40;;;5.30;;
59587;SDS011;45412;54.472;18.464;2023-06-24T05:35:10;8.70;;;3.90;;
59587;SDS011;45412;54.472;18.464;2023-06-24T05:37:56;9.50;;;4.00;;
59587;SDS011;45412;54.472;18.464;2023-06-24T05:40:43;9.60;;;4.20;;
59587;SDS011;45412;54.472;18.464;2023-06-24T05:43:29;11.40;;;4.40;;
59587;SDS011;45412;54.472;18.464;2023-06-24T05:46:16;9.90;;;3.80;;
59587;SDS011;45412;54.472;18.464;2023-06-24T05:49:05;10.50;;;4.00;;
59587;SDS011;45412;54.472;18.464;2023-06-24T05:51:51;10.00;;;3.90;;
59587;SDS011;45412;54.472;18.464;2023-06-24T05:54:38;9.90;;;4.00;;
59587;SDS011;45412;54.472;18.464;2023-06-24T05:57:24;8.60;;;3.70;;
59587;SDS011;45412;54.472;18.464;2023-06-24T06:00:11;8.90;;;3.70;;
59587;SDS011;45412;54.472;18.464;2023-06-24T06:03:01;9.30;;;3.90;;
59587;SDS011;45412;54.472;18.464;2023-06-24T06:05:48;9.40;;;3.90;;
59587;SDS011;45412;54.472;18.464;2023-06-24T06:08:34;10.70;;;3.80;;
59587;SDS011;45412;54.472;18.464;2023-06-24T06:11:20;8.60;;;3.70;;
59587;SDS011;45412;54.472;18.464;2023-06-24T06:14:07;8.30;;;3.70;;
59587;SDS011;45412;54.472;18.464;2023-06-24T06:16:53;7.20;;;3.30;;
59587;SDS011;45412;54.472;18.464;2023-06-24T06:19:40;9.00;;;3.40;;
59587;SDS011;45412;54.472;18.464;2023-06-24T06:22:27;7.40;;;3.30;;
59587;SDS011;45412;54.472;18.464;2023-06-24T06:25:14;9.30;;;3.60;;
59587;SDS011;45412;54.472;18.464;2023-06-24T06:28:00;9.40;;;3.20;;
59587;SDS011;45412;54.472;18.464;2023-06-24T06:30:46;8.60;;;2.90;;
59587;SDS011;45412;54.472;18.464;2023-06-24T06:33:33;7.60;;;2.90;;
59587;SDS011;45412;54.472;18.464;2023-06-24T06:36:22;8.30;;;2.80;;
59587;SDS011;45412;54.472;18.464;2023-06-24T06:39:09;10.20;;;3.00;;
59587;SDS011;45412;54.472;18.464;2023-06-24T06:41:55;7.70;;;3.00;;
59587;SDS011;45412;54.472;18.464;2023-06-24T06:44:43;8.00;;;3.00;;
59587;SDS011;45412;54.472;18.464;2023-06-24T06:47:30;7.70;;;3.30;;
59587;SDS011;45412;54.472;18.464;2023-06-24T06:50:17;7.70;;;2.80;;
59587;SDS011;45412;54.472;18.464;2023-06-24T06:53:04;7.80;;;2.70;;
59587;SDS011;45412;54.472;18.464;2023-06-24T06:55:50;7.50;;;2.70;;
59587;SDS011;45412;54.472;18.464;2023-06-24T06:58:40;8.40;;;2.50;;
59587;SDS011;45412;54.472;18.464;2023-06-24T07:01:26;8.70;;;2.60;;
59587;SDS011;45412;54.472;18.464;2023-06-24T07:04:12;7.50;;;2.50;;
59587;SDS011;45412;54.472;18.464;2023-06-24T07:06:59;7.80;;;2.40;;
59587;SDS011;45412;54.472;18.464;2023-06-24T07:09:45;8.50;;;2.70;;
59587;SDS011;45412;54.472;18.464;2023-06-24T07:12:32;7.80;;;2.70;;
59587;SDS011;45412;54.472;18.464;2023-06-24T07:15:18;7.30;;;2.40;;
59587;SDS011;45412;54.472;18.464;2023-06-24T07:18:05;7.00;;;2.10;;
59587;SDS011;45412;54.472;18.464;2023-06-24T07:20:53;8.70;;;2.50;;
59587;SDS011;45412;54.472;18.464;2023-06-24T07:23:39;7.00;;;2.30;;
59587;SDS011;45412;54.472;18.464;2023-06-24T07:26:25;6.60;;;2.20;;
59587;SDS011;45412;54.472;18.464;2023-06-24T07:29:14;6.60;;;2.30;;
59587;SDS011;45412;54.472;18.464;2023-06-24T07:32:00;8.30;;;2.40;;
59587;SDS011;45412;54.472;18.464;2023-06-24T07:34:47;7.00;;;2.20;;
59587;SDS011;45412;54.472;18.464;2023-06-24T07:37:34;7.30;;;2.40;;
59587;SDS011;45412;54.472;18.464;2023-06-24T07:40:20;7.50;;;2.30;;
59587;SDS011;45412;54.472;18.464;2023-06-24T07:43:07;7.30;;;2.20;;
59587;SDS011;45412;54.472;18.464;2023-06-24T07:45:53;6.70;;;2.30;;
59587;SDS011;45412;54.472;18.464;2023-06-24T07:48:39;8.50;;;2.30;;
59587;SDS011;45412;54.472;18.464;2023-06-24T07:51:26;8.90;;;2.40;;
59587;SDS011;45412;54.472;18.464;2023-06-24T07:54:13;6.70;;;2.40;;
59587;SDS011;45412;54.472;18.464;2023-06-24T07:56:59;6.70;;;2.40;;
59587;SDS011;45412;54.472;18.464;2023-06-24T07:59:46;7.30;;;2.20;;
59587;SDS011;45412;54.472;18.464;2023-06-24T08:02:34;6.30;;;2.00;;
59587;SDS011;45412;54.472;18.464;2023-06-24T08:05:21;10.30;;;2.30;;
59587;SDS011;45412;54.472;18.464;2023-06-24T08:08:08;7.20;;;2.50;;
59587;SDS011;45412;54.472;18.464;2023-06-24T08:10:55;6.60;;;2.30;;
59587;SDS011;45412;54.472;18.464;2023-06-24T08:13:41;6.30;;;2.20;;
59587;SDS011;45412;54.472;18.464;2023-06-24T08:16:27;6.20;;;2.20;;
59587;SDS011;45412;54.472;18.464;2023-06-24T08:19:14;7.00;;;2.40;;
59587;SDS011;45412;54.472;18.464;2023-06-24T08:22:00;7.40;;;2.40;;
59587;SDS011;45412;54.472;18.464;2023-06-24T08:24:47;7.20;;;2.40;;
59587;SDS011;45412;54.472;18.464;2023-06-24T08:27:34;7.60;;;2.80;;
59587;SDS011;45412;54.472;18.464;2023-06-24T08:30:20;8.10;;;2.40;;
59587;SDS011;45412;54.472;18.464;2023-06-24T08:33:07;7.30;;;2.20;;
59587;SDS011;45412;54.472;18.464;2023-06-24T08:35:53;7.00;;;2.50;;
59587;SDS011;45412;54.472;18.464;2023-06-24T08:38:39;6.70;;;2.50;;
59587;SDS011;45412;54.472;18.464;2023-06-24T08:41:26;7.30;;;2.30;;
59587;SDS011;45412;54.472;18.464;2023-06-24T08:44:12;8.90;;;2.80;;
59587;SDS011;45412;54.472;18.464;2023-06-24T08:46:59;6.60;;;2.20;;
59587;SDS011;45412;54.472;18.464;2023-06-24T08:49:48;6.60;;;2.60;;
59587;SDS011;45412;54.472;18.464;2023-06-24T08:52:44;8.60;;;2.40;;
59587;SDS011;45412;54.472;18.464;2023-06-24T08:55:38;12.20;;;2.70;;
59587;SDS011;45412;54.472;18.464;2023-06-24T08:58:29;7.30;;;2.40;;
59587;SDS011;45412;54.472;18.464;2023-06-24T09:01:15;8.10;;;2.40;;
59587;SDS011;45412;54.472;18.464;2023-06-24T09:04:02;7.10;;;2.10;;
59587;SDS011;45412;54.472;18.464;2023-06-24T09:06:50;7.70;;;2.50;;
59587;SDS011;45412;54.472;18.464;2023-06-24T09:09:43;7.40;;;2.70;;
59587;SDS011;45412;54.472;18.464;2023-06-24T09:12:34;6.90;;;2.60;;
59587;SDS011;45412;54.472;18.464;2023-06-24T09:15:21;8.50;;;2.40;;
59587;SDS011;45412;54.472;18.464;2023-06-24T09:18:08;8.60;;;2.70;;
59587;SDS011;45412;54.472;18.464;2023-06-24T09:20:56;7.00;;;2.40;;
59587;SDS011;45412;54.472;18.464;2023-06-24T09:23:43;7.00;;;2.40;;
59587;SDS011;45412;54.472;18.464;2023-06-24T09:26:29;8.10;;;2.50;;
59587;SDS011;45412;54.472;18.464;2023-06-24T09:29:16;8.70;;;2.50;;
59587;SDS011;45412;54.472;18.464;2023-06-24T09:32:06;7.50;;;2.70;;
59587;SDS011;45412;54.472;18.464;2023-06-24T09:34:54;7.50;;;2.50;;
59587;SDS011;45412;54.472;18.464;2023-06-24T09:37:40;7.00;;;2.30;;
59587;SDS011;45412;54.472;18.464;2023-06-24T09:40:27;6.70;;;2.30;;
59587;SDS011;45412;54.472;18.464;2023-06-24T09:43:19;7.50;;;2.50;;
59587;SDS011;45412;54.472;18.464;2023-06-24T09:46:06;8.70;;;2.60;;
59587;SDS011;45412;54.472;18.464;2023-06-24T09:48:53;7.60;;;2.50;;
59587;SDS011;45412;54.472;18.464;2023-06-24T09:51:43;7.70;;;2.60;;
59587;SDS011;45412;54.472;18.464;2023-06-24T09:54:32;7.90;;;2.60;;
59587;SDS011;45412;54.472;18.464;2023-06-24T09:57:23;7.70;;;2.30;;
59587;SDS011;45412;54.472;18.464;2023-06-24T10:00:14;7.10;;;2.80;;
59587;SDS011;45412;54.472;18.464;2023-06-24T10:03:04;7.40;;;2.70;;
59587;SDS011;45412;54.472;18.464;2023-06-24T10:05:51;6.80;;;2.40;;
59587;SDS011;45412;54.472;18.464;2023-06-24T10:08:37;7.50;;;2.80;;
59587;SDS011;45412;54.472;18.464;2023-06-24T10:11:23;5.70;;;2.20;;
59587;SDS011;45412;54.472;18.464;2023-06-24T10:14:12;8.70;;;2.50;;
59587;SDS011;45412;54.472;18.464;2023-06-24T10:17:05;8.70;;;2.40;;
59587;SDS011;45412;54.472;18.464;2023-06-24T10:19:53;7.10;;;2.80;;
59587;SDS011;45412;54.472;18.464;2023-06-24T10:22:45;8.20;;;2.50;;
59587;SDS011;45412;54.472;18.464;2023-06-24T10:25:40;6.70;;;2.50;;
59587;SDS011;45412;54.472;18.464;2023-06-24T10:28:33;7.70;;;2.40;;
59587;SDS011;45412;54.472;18.464;2023-06-24T10:31:54;6.80;;;2.50;;
59587;SDS011;45412;54.472;18.464;2023-06-24T10:34:54;6.40;;;2.40;;
59587;SDS011;45412;54.472;18.464;2023-06-24T10:37:53;8.70;;;2.60;;
59587;SDS011;45412;54.472;18.464;2023-06-24T10:40:42;11.00;;;2.30;;
59587;SDS011;45412;54.472;18.464;2023-06-24T10:43:30;8.40;;;2.70;;
59587;SDS011;45412;54.472;18.464;2023-06-24T10:46:16;8.90;;;2.50;;
59587;SDS011;45412;54.472;18.464;2023-06-24T10:49:03;7.60;;;2.50;;
59587;SDS011;45412;54.472;18.464;2023-06-24T10:51:49;6.70;;;2.50;;
59587;SDS011;45412;54.472;18.464;2023-06-24T10:54:37;6.80;;;2.70;;
59587;SDS011;45412;54.472;18.464;2023-06-24T10:57:25;6.70;;;2.40;;
59587;SDS011;45412;54.472;18.464;2023-06-24T11:00:14;7.10;;;2.70;;
59587;SDS011;45412;54.472;18.464;2023-06-24T11:03:09;7.30;;;2.60;;
59587;SDS011;45412;54.472;18.464;2023-06-24T11:05:56;8.30;;;2.80;;
59587;SDS011;45412;54.472;18.464;2023-06-24T11:08:44;7.30;;;2.60;;
59587;SDS011;45412;54.472;18.464;2023-06-24T11:11:31;9.00;;;2.70;;
59587;SDS011;45412;54.472;18.464;2023-06-24T11:14:17;10.50;;;3.70;;
59587;SDS011;45412;54.472;18.464;2023-06-24T11:17:05;8.90;;;3.60;;
59587;SDS011;45412;54.472;18.464;2023-06-24T11:19:55;9.40;;;3.20;;
59587;SDS011;45412;54.472;18.464;2023-06-24T11:22:43;10.70;;;3.20;;
59587;SDS011;45412;54.472;18.464;2023-06-24T11:25:30;11.70;;;3.80;;
59587;SDS011;45412;54.472;18.464;2023-06-24T11:28:19;9.90;;;3.20;;
59587;SDS011;45412;54.472;18.464;2023-06-24T11:31:09;9.50;;;3.30;;
59587;SDS011;45412;54.472;18.464;2023-06-24T11:33:56;12.20;;;3.60;;
59587;SDS011;45412;54.472;18.464;2023-06-24T11:36:43;9.70;;;3.40;;
59587;SDS011;45412;54.472;18.464;2023-06-24T11:39:29;9.60;;;3.70;;
59587;SDS011;45412;54.472;18.464;2023-06-24T11:42:15;8.30;;;3.50;;
59587;SDS011;45412;54.472;18.464;2023-06-24T11:45:09;8.50;;;3.80;;
59587;SDS011;45412;54.472;18.464;2023-06-24T11:48:03;8.00;;;3.90;;
59587;SDS011;45412;54.472;18.464;2023-06-24T11:50:54;9.00;;;3.50;;
59587;SDS011;45412;54.472;18.464;2023-06-24T11:53:41;8.90;;;3.40;;
59587;SDS011;45412;54.472;18.464;2023-06-24T11:56:35;9.40;;;3.50;;
59587;SDS011;45412;54.472;18.464;2023-06-24T11:59:27;7.80;;;3.50;;
59587;SDS011;45412;54.472;18.464;2023-06-24T12:02:15;8.70;;;3.50;;
59587;SDS011;45412;54.472;18.464;2023-06-24T12:05:02;8.50;;;3.40;;
59587;SDS011;45412;54.472;18.464;2023-06-24T12:07:49;9.60;;;3.60;;
59587;SDS011;45412;54.472;18.464;2023-06-24T12:10:36;8.60;;;3.90;;
59587;SDS011;45412;54.472;18.464;2023-06-24T12:13:24;8.40;;;3.90;;
59587;SDS011;45412;54.472;18.464;2023-06-24T12:16:10;8.90;;;3.80;;
59587;SDS011;45412;54.472;18.464;2023-06-24T12:18:57;8.60;;;3.80;;
59587;SDS011;45412;54.472;18.464;2023-06-24T12:21:43;11.60;;;3.90;;
59587;SDS011;45412;54.472;18.464;2023-06-24T12:24:30;9.90;;;3.70;;
59587;SDS011;45412;54.472;18.464;2023-06-24T12:27:16;10.10;;;4.10;;
59587;SDS011;45412;54.472;18.464;2023-06-24T12:30:03;12.20;;;3.80;;
59587;SDS011;45412;54.472;18.464;2023-06-24T12:32:51;10.20;;;3.80;;
59587;SDS011;45412;54.472;18.464;2023-06-24T12:35:37;8.40;;;3.70;;
59587;SDS011;45412;54.472;18.464;2023-06-24T12:38:25;10.20;;;3.80;;
59587;SDS011;45412;54.472;18.464;2023-06-24T12:41:11;10.50;;;3.90;;
59587;SDS011;45412;54.472;18.464;2023-06-24T12:43:58;10.70;;;3.90;;
59587;SDS011;45412;54.472;18.464;2023-06-24T12:46:45;9.80;;;4.10;;
59587;SDS011;45412;54.472;18.464;2023-06-24T12:49:31;10.30;;;4.10;;
59587;SDS011;45412;54.472;18.464;2023-06-24T12:52:17;11.10;;;3.90;;
59587;SDS011;45412;54.472;18.464;2023-06-24T12:55:05;10.20;;;3.80;;
59587;SDS011;45412;54.472;18.464;2023-06-24T12:57:54;11.60;;;3.60;;
59587;SDS011;45412;54.472;18.464;2023-06-24T13:00:41;8.10;;;3.50;;
59587;SDS011;45412;54.472;18.464;2023-06-24T13:03:27;10.10;;;3.30;;
59587;SDS011;45412;54.472;18.464;2023-06-24T13:06:14;8.40;;;3.10;;
59587;SDS011;45412;54.472;18.464;2023-06-24T13:09:00;9.70;;;3.80;;
59587;SDS011;45412;54.472;18.464;2023-06-24T13:11:47;8.60;;;3.70;;
59587;SDS011;45412;54.472;18.464;2023-06-24T13:14:35;9.60;;;3.40;;
59587;SDS011;45412;54.472;18.464;2023-06-24T13:17:22;9.00;;;3.50;;
59587;SDS011;45412;54.472;18.464;2023-06-24T13:20:09;7.90;;;3.20;;
59587;SDS011;45412;54.472;18.464;2023-06-24T13:22:56;9.20;;;3.70;;
59587;SDS011;45412;54.472;18.464;2023-06-24T13:25:42;7.90;;;3.80;;
59587;SDS011;45412;54.472;18.464;2023-06-24T13:28:29;7.20;;;3.30;;
59587;SDS011;45412;54.472;18.464;2023-06-24T13:31:17;8.60;;;3.60;;
59587;SDS011;45412;54.472;18.464;2023-06-24T13:34:04;8.50;;;3.30;;
59587;SDS011;45412;54.472;18.464;2023-06-24T13:36:50;8.30;;;3.60;;
59587;SDS011;45412;54.472;18.464;2023-06-24T13:39:37;8.60;;;3.50;;
59587;SDS011;45412;54.472;18.464;2023-06-24T13:42:24;9.60;;;4.00;;
59587;SDS011;45412;54.472;18.464;2023-06-24T13:45:11;7.90;;;3.60;;
59587;SDS011;45412;54.472;18.464;2023-06-24T13:47:59;9.60;;;3.90;;
59587;SDS011;45412;54.472;18.464;2023-06-24T13:50:45;8.30;;;3.30;;
59587;SDS011;45412;54.472;18.464;2023-06-24T13:53:32;8.60;;;3.90;;
59587;SDS011;45412;54.472;18.464;2023-06-24T13:56:19;8.60;;;3.20;;
59587;SDS011;45412;54.472;18.464;2023-06-24T13:59:05;8.10;;;2.90;;
59587;SDS011;45412;54.472;18.464;2023-06-24T14:01:51;8.90;;;3.10;;
59587;SDS011;45412;54.472;18.464;2023-06-24T14:04:41;8.10;;;3.10;;
59587;SDS011;45412;54.472;18.464;2023-06-24T14:07:27;7.90;;;3.40;;
59587;SDS011;45412;54.472;18.464;2023-06-24T14:10:15;7.90;;;3.30;;
59587;SDS011;45412;54.472;18.464;2023-06-24T14:13:01;8.20;;;3.30;;
59587;SDS011;45412;54.472;18.464;2023-06-24T14:15:49;7.40;;;3.40;;
59587;SDS011;45412;54.472;18.464;2023-06-24T14:18:35;8.00;;;3.80;;
59587;SDS011;45412;54.472;18.464;2023-06-24T14:21:22;8.80;;;3.50;;
59587;SDS011;45412;54.472;18.464;2023-06-24T14:24:09;27.80;;;9.00;;
59587;SDS011;45412;54.472;18.464;2023-06-24T14:27:04;8.20;;;3.90;;
59587;SDS011;45412;54.472;18.464;2023-06-24T14:29:52;10.70;;;3.70;;
59587;SDS011;45412;54.472;18.464;2023-06-24T14:32:38;8.30;;;3.40;;
59587;SDS011;45412;54.472;18.464;2023-06-24T14:35:25;10.80;;;3.60;;
59587;SDS011;45412;54.472;18.464;2023-06-24T14:38:12;7.80;;;3.50;;
59587;SDS011;45412;54.472;18.464;2023-06-24T14:40:58;8.30;;;3.80;;
59587;SDS011;45412;54.472;18.464;2023-06-24T14:43:44;10.70;;;3.90;;
59587;SDS011;45412;54.472;18.464;2023-06-24T14:46:31;8.40;;;3.50;;
59587;SDS011;45412;54.472;18.464;2023-06-24T14:49:18;10.40;;;3.60;;
59587;SDS011;45412;54.472;18.464;2023-06-24T14:52:05;8.30;;;3.80;;
59587;SDS011;45412;54.472;18.464;2023-06-24T14:54:52;9.60;;;4.10;;
59587;SDS011;45412;54.472;18.464;2023-06-24T14:57:38;10.10;;;3.50;;
59587;SDS011;45412;54.472;18.464;2023-06-24T15:00:25;9.00;;;3.20;;
59587;SDS011;45412;54.472;18.464;2023-06-24T15:03:11;9.50;;;3.20;;
59587;SDS011;45412;54.472;18.464;2023-06-24T15:05:59;9.50;;;3.50;;
59587;SDS011;45412;54.472;18.464;2023-06-24T15:08:45;9.10;;;3.50;;
59587;SDS011;45412;54.472;18.464;2023-06-24T15:11:31;9.10;;;4.10;;
59587;SDS011;45412;54.472;18.464;2023-06-24T15:14:18;9.00;;;3.60;;
59587;SDS011;45412;54.472;18.464;2023-06-24T15:17:05;9.60;;;3.70;;
59587;SDS011;45412;54.472;18.464;2023-06-24T15:19:51;7.50;;;3.60;;
59587;SDS011;45412;54.472;18.464;2023-06-24T15:22:38;10.50;;;3.70;;
59587;SDS011;45412;54.472;18.464;2023-06-24T15:25:26;7.80;;;3.40;;
59587;SDS011;45412;54.472;18.464;2023-06-24T15:28:13;11.80;;;3.40;;
59587;SDS011;45412;54.472;18.464;2023-06-24T15:31:00;9.10;;;4.10;;
59587;SDS011;45412;54.472;18.464;2023-06-24T15:33:46;8.60;;;3.60;;
59587;SDS011;45412;54.472;18.464;2023-06-24T15:36:33;10.50;;;3.60;;
59587;SDS011;45412;54.472;18.464;2023-06-24T15:39:19;8.10;;;3.50;;
59587;SDS011;45412;54.472;18.464;2023-06-24T15:42:06;10.70;;;3.40;;
59587;SDS011;45412;54.472;18.464;2023-06-24T15:44:53;9.00;;;3.40;;
59587;SDS011;45412;54.472;18.464;2023-06-24T15:47:39;7.70;;;3.00;;
59587;SDS011;45412;54.472;18.464;2023-06-24T15:50:25;11.30;;;3.80;;
59587;SDS011;45412;54.472;18.464;2023-06-24T15:53:12;9.40;;;3.60;;
59587;SDS011;45412;54.472;18.464;2023-06-24T15:56:02;8.10;;;3.60;;
59587;SDS011;45412;54.472;18.464;2023-06-24T15:58:48;8.10;;;3.30;;
59587;SDS011;45412;54.472;18.464;2023-06-24T16:01:35;8.10;;;3.30;;
59587;SDS011;45412;54.472;18.464;2023-06-24T16:04:21;8.50;;;3.70;;
59587;SDS011;45412;54.472;18.464;2023-06-24T16:07:08;9.20;;;3.40;;
59587;SDS011;45412;54.472;18.464;2023-06-24T16:09:55;8.00;;;3.30;;
59587;SDS011;45412;54.472;18.464;2023-06-24T16:12:42;7.40;;;2.70;;
59587;SDS011;45412;54.472;18.464;2023-06-24T16:15:28;10.20;;;3.20;;
59587;SDS011;45412;54.472;18.464;2023-06-24T16:18:15;8.30;;;2.70;;
59587;SDS011;45412;54.472;18.464;2023-06-24T16:21:02;7.40;;;2.80;;
59587;SDS011;45412;54.472;18.464;2023-06-24T16:23:49;7.30;;;2.50;;
59587;SDS011;45412;54.472;18.464;2023-06-24T16:26:35;8.50;;;2.80;;
59587;SDS011;45412;54.472;18.464;2023-06-24T16:29:37;7.60;;;3.50;;
59587;SDS011;45412;54.472;18.464;2023-06-24T16:32:23;8.40;;;3.00;;
59587;SDS011;45412;54.472;18.464;2023-06-24T16:35:10;7.70;;;3.10;;
59587;SDS011;45412;54.472;18.464;2023-06-24T16:37:57;9.80;;;2.90;;
59587;SDS011;45412;54.472;18.464;2023-06-24T16:40:45;7.70;;;3.40;;